sensor_id;sensor_type;location;lat;lon;timestamp;temperature;humidity
43627;DHT22;29217;52.586;13.442;2022-11-14T00:02:22;7.10;99.90
43627;DHT22;29217;52.586;13.442;2022-11-14T00:04:48;7.20;99.90
43627;DHT22;29217;52.586;13.442;2022-11-14T00:07:14;7.20;99.90
43627;DHT22;29217;52.586;13.442;2022-11-14T00:09:40;7.20;99.90
43627;DHT22;29217;52.586;13.442;2022-11-14T00:12:10;7.10;99.90
43627;DHT22;29217;52.586;13.442;2022-11-14T00:14:36;7.20;99.90
43627;DHT22;29217;52.586;13.442;2022-11-14T00:17:02;7.20;99.90
43627;DHT22;29217;52.586;13.442;2022-11-14T00:19:28;7.10;99.90
43627;DHT22;29217;52.586;13.442;2022-11-14T00:21:54;7.20;99.90
43627;DHT22;29217;52.586;13.442;2022-11-14T00:24:20;7.20;99.90
43627;DHT22;29217;52.586;13.442;2022-11-14T00:26:46;7.20;99.90
43627;DHT22;29217;52.586;13.442;2022-11-14T00:29:12;7.10;99.90
43627;DHT22;29217;52.586;13.442;2022-11-14T00:31:38;7.10;99.90
43627;DHT22;29217;52.586;13.442;2022-11-14T00:34:04;7.10;99.90
43627;DHT22;29217;52.586;13.442;2022-11-14T00:36:29;7.10;99.90
43627;DHT22;29217;52.586;13.442;2022-11-14T00:38:55;7.10;99.90
43627;DHT22;29217;52.586;13.442;2022-11-14T00:41:21;7.10;99.90
43627;DHT22;29217;52.586;13.442;2022-11-14T00:43:46;7.20;99.90
43627;DHT22;29217;52.586;13.442;2022-11-14T00:46:12;7.10;99.90
43627;DHT22;29217;52.586;13.442;2022-11-14T00:48:38;7.10;99.90
43627;DHT22;29217;52.586;13.442;2022-11-14T00:51:03;7.10;99.90
43627;DHT22;29217;52.586;13.442;2022-11-14T00:53:29;7.10;99.90
43627;DHT22;29217;52.586;13.442;2022-11-14T00:55:55;7.10;99.90
43627;DHT22;29217;52.586;13.442;2022-11-14T00:58:20;7.10;99.90
43627;DHT22;29217;52.586;13.442;2022-11-14T01:00:46;7.10;99.90
43627;DHT22;29217;52.586;13.442;2022-11-14T01:03:12;7.10;99.90
43627;DHT22;29217;52.586;13.442;2022-11-14T01:05:45;7.10;99.90
43627;DHT22;29217;52.586;13.442;2022-11-14T01:08:12;7.10;99.90
43627;DHT22;29217;52.586;13.442;2022-11-14T01:10:43;7.10;99.90
43627;DHT22;29217;52.586;13.442;2022-11-14T01:13:10;7.10;99.90
43627;DHT22;29217;52.586;13.442;2022-11-14T01:15:40;7.10;99.90
43627;DHT22;29217;52.586;13.442;2022-11-14T01:18:06;7.10;99.90
43627;DHT22;29217;52.586;13.442;2022-11-14T01:20:32;7.00;99.90
43627;DHT22;29217;52.586;13.442;2022-11-14T01:22:58;7.00;99.90
43627;DHT22;29217;52.586;13.442;2022-11-14T01:25:23;7.00;99.90
43627;DHT22;29217;52.586;13.442;2022-11-14T01:27:49;7.00;99.90
43627;DHT22;29217;52.586;13.442;2022-11-14T01:30:14;6.90;99.90
43627;DHT22;29217;52.586;13.442;2022-11-14T01:32:40;6.90;99.90
43627;DHT22;29217;52.586;13.442;2022-11-14T01:35:06;6.80;99.90
43627;DHT22;29217;52.586;13.442;2022-11-14T01:37:32;6.80;99.90
43627;DHT22;29217;52.586;13.442;2022-11-14T01:39:57;6.80;99.90
43627;DHT22;29217;52.586;13.442;2022-11-14T01:42:23;6.80;99.90
43627;DHT22;29217;52.586;13.442;2022-11-14T01:44:52;6.80;99.90
43627;DHT22;29217;52.586;13.442;2022-11-14T01:47:20;6.70;99.90
43627;DHT22;29217;52.586;13.442;2022-11-14T01:49:50;6.70;99.90
43627;DHT22;29217;52.586;13.442;2022-11-14T01:52:24;6.60;99.90
43627;DHT22;29217;52.586;13.442;2022-11-14T01:54:53;6.60;99.90
43627;DHT22;29217;52.586;13.442;2022-11-14T01:57:33;6.50;99.90
43627;DHT22;29217;52.586;13.442;2022-11-14T02:00:04;6.60;99.90
43627;DHT22;29217;52.586;13.442;2022-11-14T02:02:30;6.40;99.90
43627;DHT22;29217;52.586;13.442;2022-11-14T02:05:07;6.40;99.90
43627;DHT22;29217;52.586;13.442;2022-11-14T02:07:36;6.40;99.90
43627;DHT22;29217;52.586;13.442;2022-11-14T02:10:06;6.40;99.90
43627;DHT22;29217;52.586;13.442;2022-11-14T02:12:32;6.40;99.90
43627;DHT22;29217;52.586;13.442;2022-11-14T02:14:58;6.40;99.90
43627;DHT22;29217;52.586;13.442;2022-11-14T02:17:25;6.40;99.90
43627;DHT22;29217;52.586;13.442;2022-11-14T02:22:36;6.40;99.90
43627;DHT22;29217;52.586;13.442;2022-11-14T02:25:03;6.40;99.90
43627;DHT22;29217;52.586;13.442;2022-11-14T02:27:30;6.50;99.90
43627;DHT22;29217;52.586;13.442;2022-11-14T02:30:20;6.50;99.90
43627;DHT22;29217;52.586;13.442;2022-11-14T02:32:46;6.60;99.90
43627;DHT22;29217;52.586;13.442;2022-11-14T02:35:12;6.60;99.90
43627;DHT22;29217;52.586;13.442;2022-11-14T02:37:38;6.60;99.90
43627;DHT22;29217;52.586;13.442;2022-11-14T02:40:04;6.70;99.90
43627;DHT22;29217;52.586;13.442;2022-11-14T02:42:30;6.70;99.90
43627;DHT22;29217;52.586;13.442;2022-11-14T02:44:56;6.70;99.90
43627;DHT22;29217;52.586;13.442;2022-11-14T02:47:21;6.70;99.90
43627;DHT22;29217;52.586;13.442;2022-11-14T02:49:49;6.70;99.90
43627;DHT22;29217;52.586;13.442;2022-11-14T02:52:15;6.70;99.90
43627;DHT22;29217;52.586;13.442;2022-11-14T02:54:41;6.70;99.90
43627;DHT22;29217;52.586;13.442;2022-11-14T02:57:07;6.70;99.90
43627;DHT22;29217;52.586;13.442;2022-11-14T02:59:32;6.80;99.90
43627;DHT22;29217;52.586;13.442;2022-11-14T03:01:58;6.70;99.90
43627;DHT22;29217;52.586;13.442;2022-11-14T03:04:23;6.70;99.90
43627;DHT22;29217;52.586;13.442;2022-11-14T03:06:49;6.70;99.90
43627;DHT22;29217;52.586;13.442;2022-11-14T03:09:14;6.70;99.90
43627;DHT22;29217;52.586;13.442;2022-11-14T03:11:40;6.70;99.90
43627;DHT22;29217;52.586;13.442;2022-11-14T03:14:05;6.70;99.90
43627;DHT22;29217;52.586;13.442;2022-11-14T03:16:31;6.70;99.90
43627;DHT22;29217;52.586;13.442;2022-11-14T03:18:56;6.60;99.90
43627;DHT22;29217;52.586;13.442;2022-11-14T03:21:22;6.70;99.90
43627;DHT22;29217;52.586;13.442;2022-11-14T03:23:48;6.70;99.90
43627;DHT22;29217;52.586;13.442;2022-11-14T03:26:14;6.70;99.90
43627;DHT22;29217;52.586;13.442;2022-11-14T03:28:40;6.80;99.90
43627;DHT22;29217;52.586;13.442;2022-11-14T03:31:08;6.70;99.90
43627;DHT22;29217;52.586;13.442;2022-11-14T03:33:35;6.80;99.90
43627;DHT22;29217;52.586;13.442;2022-11-14T03:36:01;6.80;99.90
43627;DHT22;29217;52.586;13.442;2022-11-14T03:38:27;6.80;99.90
43627;DHT22;29217;52.586;13.442;2022-11-14T03:40:52;6.70;99.90
43627;DHT22;29217;52.586;13.442;2022-11-14T03:43:20;6.70;99.90
43627;DHT22;29217;52.586;13.442;2022-11-14T03:45:46;6.70;99.90
43627;DHT22;29217;52.586;13.442;2022-11-14T03:48:13;6.70;99.90
43627;DHT22;29217;52.586;13.442;2022-11-14T03:50:39;6.70;99.90
43627;DHT22;29217;52.586;13.442;2022-11-14T03:53:05;6.60;99.90
43627;DHT22;29217;52.586;13.442;2022-11-14T03:55:32;6.60;99.90
43627;DHT22;29217;52.586;13.442;2022-11-14T03:57:57;6.60;99.90
43627;DHT22;29217;52.586;13.442;2022-11-14T04:00:23;6.60;99.90
43627;DHT22;29217;52.586;13.442;2022-11-14T04:02:49;6.60;99.90
43627;DHT22;29217;52.586;13.442;2022-11-14T04:05:15;6.60;99.90
43627;DHT22;29217;52.586;13.442;2022-11-14T04:07:40;6.60;99.90
43627;DHT22;29217;52.586;13.442;2022-11-14T04:10:06;6.60;99.90
43627;DHT22;29217;52.586;13.442;2022-11-14T04:12:32;6.60;99.90
43627;DHT22;29217;52.586;13.442;2022-11-14T04:14:57;6.60;99.90
43627;DHT22;29217;52.586;13.442;2022-11-14T04:17:23;6.60;99.90
43627;DHT22;29217;52.586;13.442;2022-11-14T04:19:48;6.60;99.90
43627;DHT22;29217;52.586;13.442;2022-11-14T04:22:14;6.60;99.90
43627;DHT22;29217;52.586;13.442;2022-11-14T04:24:40;6.60;99.90
43627;DHT22;29217;52.586;13.442;2022-11-14T04:27:06;6.60;99.90
43627;DHT22;29217;52.586;13.442;2022-11-14T04:29:31;6.50;99.90
43627;DHT22;29217;52.586;13.442;2022-11-14T04:31:57;6.50;99.90
43627;DHT22;29217;52.586;13.442;2022-11-14T04:34:22;6.50;99.90
43627;DHT22;29217;52.586;13.442;2022-11-14T04:36:48;6.50;99.90
43627;DHT22;29217;52.586;13.442;2022-11-14T04:39:16;6.50;99.90
43627;DHT22;29217;52.586;13.442;2022-11-14T04:41:42;6.40;99.90
43627;DHT22;29217;52.586;13.442;2022-11-14T04:44:07;6.40;99.90
43627;DHT22;29217;52.586;13.442;2022-11-14T04:46:33;6.40;99.90
43627;DHT22;29217;52.586;13.442;2022-11-14T04:48:58;6.30;99.90
43627;DHT22;29217;52.586;13.442;2022-11-14T04:51:24;6.30;99.90
43627;DHT22;29217;52.586;13.442;2022-11-14T04:53:49;6.30;99.90
43627;DHT22;29217;52.586;13.442;2022-11-14T04:56:15;6.20;99.90
43627;DHT22;29217;52.586;13.442;2022-11-14T04:58:41;6.20;99.90
43627;DHT22;29217;52.586;13.442;2022-11-14T05:01:08;6.20;99.90
43627;DHT22;29217;52.586;13.442;2022-11-14T05:03:33;6.20;99.90
43627;DHT22;29217;52.586;13.442;2022-11-14T05:06:00;6.10;99.90
43627;DHT22;29217;52.586;13.442;2022-11-14T05:08:26;6.10;99.90
43627;DHT22;29217;52.586;13.442;2022-11-14T05:10:51;6.20;99.90
43627;DHT22;29217;52.586;13.442;2022-11-14T05:13:17;6.10;99.90
43627;DHT22;29217;52.586;13.442;2022-11-14T05:15:42;6.10;99.90
43627;DHT22;29217;52.586;13.442;2022-11-14T05:18:08;6.10;99.90
43627;DHT22;29217;52.586;13.442;2022-11-14T05:20:34;6.10;99.90
43627;DHT22;29217;52.586;13.442;2022-11-14T05:22:59;6.10;99.90
43627;DHT22;29217;52.586;13.442;2022-11-14T05:25:25;6.20;99.90
43627;DHT22;29217;52.586;13.442;2022-11-14T05:27:50;6.20;99.90
43627;DHT22;29217;52.586;13.442;2022-11-14T05:30:16;6.20;99.90
43627;DHT22;29217;52.586;13.442;2022-11-14T05:32:42;6.20;99.90
43627;DHT22;29217;52.586;13.442;2022-11-14T05:35:07;6.20;99.90
43627;DHT22;29217;52.586;13.442;2022-11-14T05:37:33;6.20;99.90
43627;DHT22;29217;52.586;13.442;2022-11-14T05:39:59;6.30;99.90
43627;DHT22;29217;52.586;13.442;2022-11-14T05:42:28;6.30;99.90
43627;DHT22;29217;52.586;13.442;2022-11-14T05:44:53;6.30;99.90
43627;DHT22;29217;52.586;13.442;2022-11-14T05:47:19;6.30;99.90
43627;DHT22;29217;52.586;13.442;2022-11-14T05:49:45;6.30;99.90
43627;DHT22;29217;52.586;13.442;2022-11-14T05:52:10;6.30;99.90
43627;DHT22;29217;52.586;13.442;2022-11-14T05:54:36;6.30;99.90
43627;DHT22;29217;52.586;13.442;2022-11-14T05:57:02;6.30;99.90
43627;DHT22;29217;52.586;13.442;2022-11-14T05:59:27;6.30;99.90
43627;DHT22;29217;52.586;13.442;2022-11-14T06:01:53;6.30;99.90
43627;DHT22;29217;52.586;13.442;2022-11-14T06:04:18;6.30;99.90
43627;DHT22;29217;52.586;13.442;2022-11-14T06:06:44;6.30;99.90
43627;DHT22;29217;52.586;13.442;2022-11-14T06:09:10;6.30;99.90
43627;DHT22;29217;52.586;13.442;2022-11-14T06:11:35;6.30;99.90
43627;DHT22;29217;52.586;13.442;2022-11-14T06:14:01;6.40;99.90
43627;DHT22;29217;52.586;13.442;2022-11-14T06:16:27;6.30;99.90
43627;DHT22;29217;52.586;13.442;2022-11-14T06:18:52;6.30;99.90
43627;DHT22;29217;52.586;13.442;2022-11-14T06:21:20;6.30;99.90
43627;DHT22;29217;52.586;13.442;2022-11-14T06:23:47;6.30;99.90
43627;DHT22;29217;52.586;13.442;2022-11-14T06:26:24;6.30;99.90
43627;DHT22;29217;52.586;13.442;2022-11-14T06:28:51;6.30;99.90
43627;DHT22;29217;52.586;13.442;2022-11-14T06:31:17;6.30;99.90
43627;DHT22;29217;52.586;13.442;2022-11-14T06:33:43;6.30;99.90
43627;DHT22;29217;52.586;13.442;2022-11-14T06:36:10;6.30;99.90
43627;DHT22;29217;52.586;13.442;2022-11-14T06:38:37;6.30;99.90
43627;DHT22;29217;52.586;13.442;2022-11-14T06:43:37;6.30;99.90
43627;DHT22;29217;52.586;13.442;2022-11-14T06:46:04;6.30;99.90
43627;DHT22;29217;52.586;13.442;2022-11-14T06:48:30;6.30;99.90
43627;DHT22;29217;52.586;13.442;2022-11-14T06:50:57;6.30;99.90
43627;DHT22;29217;52.586;13.442;2022-11-14T06:53:24;6.30;99.90
43627;DHT22;29217;52.586;13.442;2022-11-14T06:56:17;6.30;99.90
43627;DHT22;29217;52.586;13.442;2022-11-14T06:58:46;6.20;99.90
43627;DHT22;29217;52.586;13.442;2022-11-14T07:01:18;6.30;99.90
43627;DHT22;29217;52.586;13.442;2022-11-14T07:03:44;6.30;99.90
43627;DHT22;29217;52.586;13.442;2022-11-14T07:06:16;6.30;99.90
43627;DHT22;29217;52.586;13.442;2022-11-14T07:08:42;6.30;99.90
43627;DHT22;29217;52.586;13.442;2022-11-14T07:11:12;6.30;99.90
43627;DHT22;29217;52.586;13.442;2022-11-14T07:13:50;6.30;99.90
43627;DHT22;29217;52.586;13.442;2022-11-14T07:16:15;6.30;99.90
43627;DHT22;29217;52.586;13.442;2022-11-14T07:18:41;6.30;99.90
43627;DHT22;29217;52.586;13.442;2022-11-14T07:21:07;6.30;99.90
43627;DHT22;29217;52.586;13.442;2022-11-14T07:23:34;6.30;99.90
43627;DHT22;29217;52.586;13.442;2022-11-14T07:26:05;6.30;99.90
43627;DHT22;29217;52.586;13.442;2022-11-14T07:28:34;6.30;99.90
43627;DHT22;29217;52.586;13.442;2022-11-14T07:31:05;6.40;99.90
43627;DHT22;29217;52.586;13.442;2022-11-14T07:33:31;6.40;99.90
43627;DHT22;29217;52.586;13.442;2022-11-14T07:35:57;6.40;99.90
43627;DHT22;29217;52.586;13.442;2022-11-14T07:38:23;6.40;99.90
43627;DHT22;29217;52.586;13.442;2022-11-14T07:40:56;6.50;99.90
43627;DHT22;29217;52.586;13.442;2022-11-14T07:43:21;6.50;99.90
43627;DHT22;29217;52.586;13.442;2022-11-14T07:45:47;6.50;99.90
43627;DHT22;29217;52.586;13.442;2022-11-14T07:48:13;6.50;99.90
43627;DHT22;29217;52.586;13.442;2022-11-14T07:50:39;6.50;99.90
43627;DHT22;29217;52.586;13.442;2022-11-14T07:53:04;6.40;99.90
43627;DHT22;29217;52.586;13.442;2022-11-14T07:55:30;6.40;99.90
43627;DHT22;29217;52.586;13.442;2022-11-14T07:57:58;6.40;99.90
43627;DHT22;29217;52.586;13.442;2022-11-14T08:00:24;6.50;99.90
43627;DHT22;29217;52.586;13.442;2022-11-14T08:02:50;6.50;99.90
43627;DHT22;29217;52.586;13.442;2022-11-14T08:05:16;6.50;99.90
43627;DHT22;29217;52.586;13.442;2022-11-14T08:07:41;6.50;99.90
43627;DHT22;29217;52.586;13.442;2022-11-14T08:10:08;6.60;99.90
43627;DHT22;29217;52.586;13.442;2022-11-14T08:12:36;6.70;99.90
43627;DHT22;29217;52.586;13.442;2022-11-14T08:15:05;6.70;99.90
43627;DHT22;29217;52.586;13.442;2022-11-14T08:17:31;6.70;99.90
43627;DHT22;29217;52.586;13.442;2022-11-14T08:19:56;6.70;99.90
43627;DHT22;29217;52.586;13.442;2022-11-14T08:22:22;6.80;99.90
43627;DHT22;29217;52.586;13.442;2022-11-14T08:24:47;6.70;99.90
43627;DHT22;29217;52.586;13.442;2022-11-14T08:27:13;6.80;99.90
43627;DHT22;29217;52.586;13.442;2022-11-14T08:29:38;6.80;99.90
43627;DHT22;29217;52.586;13.442;2022-11-14T08:32:04;6.80;99.90
43627;DHT22;29217;52.586;13.442;2022-11-14T08:34:29;6.80;99.90
43627;DHT22;29217;52.586;13.442;2022-11-14T08:36:55;6.80;99.90
43627;DHT22;29217;52.586;13.442;2022-11-14T08:39:22;6.80;99.90
43627;DHT22;29217;52.586;13.442;2022-11-14T08:41:47;6.80;99.90
43627;DHT22;29217;52.586;13.442;2022-11-14T08:44:13;6.80;99.90
43627;DHT22;29217;52.586;13.442;2022-11-14T08:46:38;6.80;99.90
43627;DHT22;29217;52.586;13.442;2022-11-14T08:49:04;6.90;99.90
43627;DHT22;29217;52.586;13.442;2022-11-14T08:51:30;6.90;99.90
43627;DHT22;29217;52.586;13.442;2022-11-14T08:53:55;6.90;99.90
43627;DHT22;29217;52.586;13.442;2022-11-14T08:56:21;7.00;99.90
43627;DHT22;29217;52.586;13.442;2022-11-14T08:58:46;7.00;99.90
43627;DHT22;29217;52.586;13.442;2022-11-14T09:01:12;7.10;99.90
43627;DHT22;29217;52.586;13.442;2022-11-14T09:03:37;7.10;99.90
43627;DHT22;29217;52.586;13.442;2022-11-14T09:06:03;7.10;99.90
43627;DHT22;29217;52.586;13.442;2022-11-14T09:08:29;7.10;99.90
43627;DHT22;29217;52.586;13.442;2022-11-14T09:10:59;7.20;99.90
43627;DHT22;29217;52.586;13.442;2022-11-14T09:13:24;7.20;99.90
43627;DHT22;29217;52.586;13.442;2022-11-14T09:15:51;7.30;99.90
43627;DHT22;29217;52.586;13.442;2022-11-14T09:18:17;7.30;99.90
43627;DHT22;29217;52.586;13.442;2022-11-14T09:20:42;7.20;99.90
43627;DHT22;29217;52.586;13.442;2022-11-14T09:23:09;7.30;99.90
43627;DHT22;29217;52.586;13.442;2022-11-14T09:25:35;7.20;99.90
43627;DHT22;29217;52.586;13.442;2022-11-14T09:28:08;7.10;99.90
43627;DHT22;29217;52.586;13.442;2022-11-14T09:30:34;7.10;99.90
43627;DHT22;29217;52.586;13.442;2022-11-14T09:33:00;7.10;99.90
43627;DHT22;29217;52.586;13.442;2022-11-14T09:35:27;7.20;99.90
43627;DHT22;29217;52.586;13.442;2022-11-14T09:38:01;7.30;99.90
43627;DHT22;29217;52.586;13.442;2022-11-14T09:40:27;7.30;99.90
43627;DHT22;29217;52.586;13.442;2022-11-14T09:45:25;7.50;99.90
43627;DHT22;29217;52.586;13.442;2022-11-14T09:48:13;7.50;99.90
43627;DHT22;29217;52.586;13.442;2022-11-14T09:50:46;7.50;99.90
43627;DHT22;29217;52.586;13.442;2022-11-14T09:55:49;7.60;99.90
43627;DHT22;29217;52.586;13.442;2022-11-14T09:58:19;7.60;99.90
43627;DHT22;29217;52.586;13.442;2022-11-14T10:01:08;7.60;99.90
43627;DHT22;29217;52.586;13.442;2022-11-14T10:03:48;7.70;99.90
43627;DHT22;29217;52.586;13.442;2022-11-14T10:06:28;7.70;99.90
43627;DHT22;29217;52.586;13.442;2022-11-14T10:11:49;7.90;99.90
43627;DHT22;29217;52.586;13.442;2022-11-14T10:14:40;7.90;99.90
43627;DHT22;29217;52.586;13.442;2022-11-14T10:31:13;8.00;99.90
43627;DHT22;29217;52.586;13.442;2022-11-14T10:39:18;8.20;99.90
43627;DHT22;29217;52.586;13.442;2022-11-14T10:41:48;8.40;99.90
43627;DHT22;29217;52.586;13.442;2022-11-14T10:44:19;8.40;99.90
43627;DHT22;29217;52.586;13.442;2022-11-14T10:46:51;8.40;99.90
43627;DHT22;29217;52.586;13.442;2022-11-14T10:49:23;8.50;99.90
43627;DHT22;29217;52.586;13.442;2022-11-14T10:51:50;8.60;99.90
43627;DHT22;29217;52.586;13.442;2022-11-14T10:56:59;8.70;99.90
43627;DHT22;29217;52.586;13.442;2022-11-14T10:59:25;8.80;99.90
43627;DHT22;29217;52.586;13.442;2022-11-14T11:01:54;8.80;99.90
43627;DHT22;29217;52.586;13.442;2022-11-14T11:04:28;8.90;99.90
43627;DHT22;29217;52.586;13.442;2022-11-14T11:07:32;8.90;99.90
43627;DHT22;29217;52.586;13.442;2022-11-14T11:10:22;9.00;99.90
43627;DHT22;29217;52.586;13.442;2022-11-14T11:13:10;9.00;99.90
43627;DHT22;29217;52.586;13.442;2022-11-14T11:15:39;9.10;99.90
43627;DHT22;29217;52.586;13.442;2022-11-14T11:18:30;9.10;99.90
43627;DHT22;29217;52.586;13.442;2022-11-14T11:21:08;9.20;99.90
43627;DHT22;29217;52.586;13.442;2022-11-14T11:23:36;9.30;99.90
43627;DHT22;29217;52.586;13.442;2022-11-14T11:26:29;9.20;99.90
43627;DHT22;29217;52.586;13.442;2022-11-14T11:34:14;9.40;99.90
43627;DHT22;29217;52.586;13.442;2022-11-14T11:36:44;9.50;99.90
43627;DHT22;29217;52.586;13.442;2022-11-14T11:39:22;9.50;99.90
43627;DHT22;29217;52.586;13.442;2022-11-14T11:41:50;9.60;99.90
43627;DHT22;29217;52.586;13.442;2022-11-14T11:44:18;9.60;99.90
43627;DHT22;29217;52.586;13.442;2022-11-14T11:46:54;9.70;99.90
43627;DHT22;29217;52.586;13.442;2022-11-14T11:49:37;9.70;99.90
43627;DHT22;29217;52.586;13.442;2022-11-14T11:52:22;9.70;99.90
43627;DHT22;29217;52.586;13.442;2022-11-14T11:58:04;9.80;99.90
43627;DHT22;29217;52.586;13.442;2022-11-14T12:00:28;9.90;99.90
43627;DHT22;29217;52.586;13.442;2022-11-14T12:02:54;9.90;99.90
43627;DHT22;29217;52.586;13.442;2022-11-14T12:11:16;10.20;99.90
43627;DHT22;29217;52.586;13.442;2022-11-14T12:13:49;10.30;99.90
43627;DHT22;29217;52.586;13.442;2022-11-14T12:30:48;12.90;99.90
43627;DHT22;29217;52.586;13.442;2022-11-14T12:33:43;13.30;99.90
43627;DHT22;29217;52.586;13.442;2022-11-14T12:36:09;13.70;99.90
43627;DHT22;29217;52.586;13.442;2022-11-14T12:38:45;13.80;99.90
43627;DHT22;29217;52.586;13.442;2022-11-14T12:41:23;13.80;99.90
43627;DHT22;29217;52.586;13.442;2022-11-14T12:43:50;13.90;99.90
43627;DHT22;29217;52.586;13.442;2022-11-14T12:46:15;13.90;99.90
43627;DHT22;29217;52.586;13.442;2022-11-14T12:48:42;14.00;99.90
43627;DHT22;29217;52.586;13.442;2022-11-14T12:53:49;14.00;99.90
43627;DHT22;29217;52.586;13.442;2022-11-14T13:01:36;13.70;99.90
43627;DHT22;29217;52.586;13.442;2022-11-14T13:15:36;13.10;99.90
43627;DHT22;29217;52.586;13.442;2022-11-14T13:18:29;13.00;99.90
43627;DHT22;29217;52.586;13.442;2022-11-14T13:21:19;12.90;99.90
43627;DHT22;29217;52.586;13.442;2022-11-14T13:24:03;12.90;99.90
43627;DHT22;29217;52.586;13.442;2022-11-14T13:28:55;12.70;99.90
43627;DHT22;29217;52.586;13.442;2022-11-14T13:31:42;12.60;99.90
43627;DHT22;29217;52.586;13.442;2022-11-14T13:37:17;12.30;99.90
43627;DHT22;29217;52.586;13.442;2022-11-14T13:43:48;12.10;99.90
43627;DHT22;29217;52.586;13.442;2022-11-14T13:51:25;12.00;99.90
43627;DHT22;29217;52.586;13.442;2022-11-14T13:53:51;12.00;99.90
43627;DHT22;29217;52.586;13.442;2022-11-14T14:21:35;11.10;99.90
43627;DHT22;29217;52.586;13.442;2022-11-14T14:24:46;11.00;99.90
43627;DHT22;29217;52.586;13.442;2022-11-14T14:27:49;10.90;99.90
43627;DHT22;29217;52.586;13.442;2022-11-14T14:30:19;10.80;99.90
43627;DHT22;29217;52.586;13.442;2022-11-14T14:33:23;10.70;99.90
43627;DHT22;29217;52.586;13.442;2022-11-14T14:35:50;10.60;99.90
43627;DHT22;29217;52.586;13.442;2022-11-14T14:38:25;10.50;99.90
43627;DHT22;29217;52.586;13.442;2022-11-14T14:40:54;10.40;99.90
43627;DHT22;29217;52.586;13.442;2022-11-14T14:43:27;10.30;99.90
43627;DHT22;29217;52.586;13.442;2022-11-14T14:45:54;10.20;99.90
43627;DHT22;29217;52.586;13.442;2022-11-14T14:48:26;10.10;99.90
43627;DHT22;29217;52.586;13.442;2022-11-14T14:50:55;10.10;99.90
43627;DHT22;29217;52.586;13.442;2022-11-14T14:53:24;9.90;99.90
43627;DHT22;29217;52.586;13.442;2022-11-14T14:56:02;9.90;99.90
43627;DHT22;29217;52.586;13.442;2022-11-14T14:58:30;9.80;99.90
43627;DHT22;29217;52.586;13.442;2022-11-14T15:01:07;9.70;99.90
43627;DHT22;29217;52.586;13.442;2022-11-14T15:03:47;9.60;99.90
43627;DHT22;29217;52.586;13.442;2022-11-14T15:06:27;9.50;99.90
43627;DHT22;29217;52.586;13.442;2022-11-14T15:11:28;9.30;99.90
43627;DHT22;29217;52.586;13.442;2022-11-14T15:13:56;9.20;99.90
43627;DHT22;29217;52.586;13.442;2022-11-14T15:16:23;9.10;99.90
43627;DHT22;29217;52.586;13.442;2022-11-14T15:18:51;9.10;99.90
43627;DHT22;29217;52.586;13.442;2022-11-14T15:24:00;8.90;99.90
43627;DHT22;29217;52.586;13.442;2022-11-14T15:26:28;8.90;99.90
43627;DHT22;29217;52.586;13.442;2022-11-14T15:29:18;8.80;99.90
43627;DHT22;29217;52.586;13.442;2022-11-14T15:31:47;8.70;99.90
43627;DHT22;29217;52.586;13.442;2022-11-14T15:34:32;8.50;99.90
43627;DHT22;29217;52.586;13.442;2022-11-14T15:39:42;8.40;99.90
43627;DHT22;29217;52.586;13.442;2022-11-14T15:44:49;8.20;99.90
43627;DHT22;29217;52.586;13.442;2022-11-14T15:47:26;8.10;99.90
43627;DHT22;29217;52.586;13.442;2022-11-14T15:50:20;8.10;99.90
43627;DHT22;29217;52.586;13.442;2022-11-14T15:53:00;8.10;99.90
43627;DHT22;29217;52.586;13.442;2022-11-14T15:55:27;8.00;99.90
43627;DHT22;29217;52.586;13.442;2022-11-14T15:57:53;7.90;99.90
43627;DHT22;29217;52.586;13.442;2022-11-14T16:00:18;7.80;99.90
43627;DHT22;29217;52.586;13.442;2022-11-14T16:02:48;7.70;99.90
43627;DHT22;29217;52.586;13.442;2022-11-14T16:05:16;7.50;99.90
43627;DHT22;29217;52.586;13.442;2022-11-14T16:07:44;7.30;99.90
43627;DHT22;29217;52.586;13.442;2022-11-14T16:10:18;7.30;99.90
43627;DHT22;29217;52.586;13.442;2022-11-14T16:12:44;7.20;99.90
43627;DHT22;29217;52.586;13.442;2022-11-14T16:15:09;7.20;99.90
43627;DHT22;29217;52.586;13.442;2022-11-14T16:17:43;7.10;99.90
43627;DHT22;29217;52.586;13.442;2022-11-14T16:20:14;7.20;99.90
43627;DHT22;29217;52.586;13.442;2022-11-14T16:22:42;7.10;99.90
43627;DHT22;29217;52.586;13.442;2022-11-14T16:25:20;7.10;99.90
43627;DHT22;29217;52.586;13.442;2022-11-14T16:27:47;7.00;99.90
43627;DHT22;29217;52.586;13.442;2022-11-14T16:30:14;7.00;99.90
43627;DHT22;29217;52.586;13.442;2022-11-14T16:32:42;7.00;99.90
43627;DHT22;29217;52.586;13.442;2022-11-14T16:35:16;6.90;99.90
43627;DHT22;29217;52.586;13.442;2022-11-14T16:37:42;6.80;99.90
43627;DHT22;29217;52.586;13.442;2022-11-14T16:40:26;6.90;99.90
43627;DHT22;29217;52.586;13.442;2022-11-14T16:42:57;6.80;99.90
43627;DHT22;29217;52.586;13.442;2022-11-14T16:45:24;6.80;99.90
43627;DHT22;29217;52.586;13.442;2022-11-14T16:47:51;6.70;99.90
43627;DHT22;29217;52.586;13.442;2022-11-14T16:50:18;6.70;99.90
43627;DHT22;29217;52.586;13.442;2022-11-14T16:52:43;6.70;99.90
43627;DHT22;29217;52.586;13.442;2022-11-14T16:55:10;6.60;99.90
43627;DHT22;29217;52.586;13.442;2022-11-14T16:57:36;6.60;99.90
43627;DHT22;29217;52.586;13.442;2022-11-14T17:00:10;6.60;99.90
43627;DHT22;29217;52.586;13.442;2022-11-14T17:02:36;6.70;99.90
43627;DHT22;29217;52.586;13.442;2022-11-14T17:05:04;6.70;99.90
43627;DHT22;29217;52.586;13.442;2022-11-14T17:07:29;6.60;99.90
43627;DHT22;29217;52.586;13.442;2022-11-14T17:10:00;6.50;99.90
43627;DHT22;29217;52.586;13.442;2022-11-14T17:12:26;6.50;99.90
43627;DHT22;29217;52.586;13.442;2022-11-14T17:14:52;6.40;99.90
43627;DHT22;29217;52.586;13.442;2022-11-14T17:17:19;6.40;99.90
43627;DHT22;29217;52.586;13.442;2022-11-14T17:19:44;6.40;99.90
43627;DHT22;29217;52.586;13.442;2022-11-14T17:22:11;6.40;99.90
43627;DHT22;29217;52.586;13.442;2022-11-14T17:24:37;6.40;99.90
43627;DHT22;29217;52.586;13.442;2022-11-14T17:27:03;6.40;99.90
43627;DHT22;29217;52.586;13.442;2022-11-14T17:29:29;6.40;99.90
43627;DHT22;29217;52.586;13.442;2022-11-14T17:31:54;6.40;99.90
43627;DHT22;29217;52.586;13.442;2022-11-14T17:34:20;6.40;99.90
43627;DHT22;29217;52.586;13.442;2022-11-14T17:36:46;6.40;99.90
43627;DHT22;29217;52.586;13.442;2022-11-14T17:39:11;6.50;99.90
43627;DHT22;29217;52.586;13.442;2022-11-14T17:41:37;6.40;99.90
43627;DHT22;29217;52.586;13.442;2022-11-14T17:44:03;6.50;99.90
43627;DHT22;29217;52.586;13.442;2022-11-14T17:46:29;6.50;99.90
43627;DHT22;29217;52.586;13.442;2022-11-14T17:48:56;6.50;99.90
43627;DHT22;29217;52.586;13.442;2022-11-14T17:51:22;6.50;99.90
43627;DHT22;29217;52.586;13.442;2022-11-14T17:53:50;6.50;99.90
43627;DHT22;29217;52.586;13.442;2022-11-14T17:56:18;6.50;99.90